createdAt,value
2022-10-20T00:01:44.545Z,92.88
2022-10-20T00:04:10.871Z,92.80
2022-10-20T00:06:37.172Z,92.84
2022-10-20T00:09:05.139Z,92.82
2022-10-20T00:11:32.539Z,93.00
2022-10-20T00:14:00.078Z,93.09
2022-10-20T00:16:28.506Z,92.97
2022-10-20T00:18:56.211Z,93.17
2022-10-20T00:21:24.779Z,93.29
2022-10-20T00:26:28.386Z,93.35
2022-10-20T00:28:55.133Z,93.03
2022-10-20T00:31:23.165Z,93.39
2022-10-20T00:33:49.600Z,93.20
2022-10-20T00:36:18.858Z,92.99
2022-10-20T00:38:45.903Z,93.18
2022-10-20T00:41:13.915Z,93.39
2022-10-20T00:43:58.225Z,93.21
2022-10-20T00:46:33.640Z,93.59
2022-10-20T00:49:13.006Z,93.68
2022-10-20T00:51:39.578Z,93.72
2022-10-20T00:54:11.512Z,93.66
2022-10-20T00:56:41.598Z,93.53
2022-10-20T00:59:09.264Z,93.57
2022-10-20T01:01:36.863Z,93.62
2022-10-20T01:04:03.285Z,93.75
2022-10-20T01:06:29.711Z,93.98
2022-10-20T01:08:56.561Z,93.93
2022-10-20T01:11:42.527Z,93.96
2022-10-20T01:14:20.299Z,94.18
2022-10-20T01:16:57.797Z,94.11
2022-10-20T01:20:01.499Z,94.31
2022-10-20T01:23:10.773Z,94.31
2022-10-20T01:25:49.181Z,94.45
2022-10-20T01:28:57.484Z,94.47
2022-10-20T01:31:37.194Z,94.40
2022-10-20T01:34:11.493Z,94.25
2022-10-20T01:37:02.600Z,94.00
2022-10-20T01:39:34.932Z,94.02
2022-10-20T01:42:08.638Z,94.15
2022-10-20T01:44:36.970Z,94.03
2022-10-20T01:47:05.712Z,94.17
2022-10-20T01:49:32.172Z,94.15
2022-10-20T01:51:58.492Z,94.21
2022-10-20T01:54:27.184Z,94.23
2022-10-20T01:57:18.454Z,94.23
2022-10-20T02:00:06.577Z,94.35
2022-10-20T02:02:48.100Z,94.38
2022-10-20T02:05:32.917Z,94.41
2022-10-20T02:08:09.792Z,94.64
2022-10-20T02:10:47.305Z,94.74
2022-10-20T02:13:16.033Z,94.61
2022-10-20T02:15:48.363Z,94.60
2022-10-20T02:18:21.516Z,94.66
2022-10-20T02:20:52.081Z,94.72
2022-10-20T02:23:18.935Z,94.83
2022-10-20T02:25:49.297Z,94.85
2022-10-20T02:28:16.665Z,95.00
2022-10-20T02:30:44.420Z,94.96
2022-10-20T02:33:12.333Z,95.07
2022-10-20T02:35:48.216Z,94.91
2022-10-20T02:40:40.756Z,94.93
2022-10-20T02:43:07.115Z,94.91
2022-10-20T02:45:33.441Z,94.89
2022-10-20T02:47:59.807Z,94.93
2022-10-20T02:52:52.467Z,95.03
2022-10-20T02:57:51.145Z,95.01
2022-10-20T03:00:17.575Z,95.06
2022-10-20T03:02:43.869Z,94.90
2022-10-20T03:05:10.311Z,94.96
2022-10-20T03:10:04.020Z,95.14
2022-10-20T03:12:32.233Z,95.06
2022-10-20T03:14:58.683Z,95.03
2022-10-20T03:17:24.981Z,95.01
2022-10-20T03:19:51.310Z,94.98
2022-10-20T03:22:17.665Z,94.92
2022-10-20T03:24:43.997Z,94.80
2022-10-20T03:27:10.315Z,94.74
2022-10-20T03:29:36.666Z,94.79
2022-10-20T03:32:03.016Z,94.92
2022-10-20T03:34:29.350Z,95.00
2022-10-20T03:36:55.729Z,94.90
2022-10-20T03:39:22.073Z,94.93
2022-10-20T03:41:48.445Z,94.96
2022-10-20T03:44:14.759Z,94.82
2022-10-20T03:46:41.126Z,94.73
2022-10-20T03:49:07.547Z,94.83
2022-10-20T03:51:33.844Z,94.77
2022-10-20T03:54:00.135Z,94.90
2022-10-20T03:56:26.464Z,94.90
2022-10-20T03:58:52.859Z,95.03
2022-10-20T04:01:23.043Z,95.16
2022-10-20T04:03:49.410Z,95.05
2022-10-20T04:06:16.053Z,95.22
2022-10-20T04:08:42.439Z,95.11
2022-10-20T04:11:09.176Z,95.09
2022-10-20T04:13:35.646Z,95.10
2022-10-20T04:16:02.034Z,95.24
2022-10-20T04:18:28.373Z,94.96
2022-10-20T04:20:54.690Z,94.96
2022-10-20T04:23:21.115Z,94.69
2022-10-20T04:25:48.457Z,94.78
2022-10-20T04:28:16.708Z,94.87
2022-10-20T04:30:43.662Z,95.07
2022-10-20T04:33:10.881Z,95.07
2022-10-20T04:35:37.220Z,95.02
2022-10-20T04:38:03.895Z,94.95
2022-10-20T04:40:30.306Z,94.98
2022-10-20T04:42:59.763Z,95.09
2022-10-20T04:45:26.471Z,95.22
2022-10-20T04:47:54.029Z,95.32
2022-10-20T04:50:20.327Z,95.43
2022-10-20T04:55:24.615Z,95.28
2022-10-20T04:57:50.925Z,95.46
2022-10-20T05:00:17.253Z,95.46
2022-10-20T05:02:43.552Z,95.48
2022-10-20T05:05:09.875Z,95.36
2022-10-20T05:07:36.459Z,95.35
2022-10-20T05:10:03.831Z,95.52
2022-10-20T05:12:30.141Z,95.36
2022-10-20T05:14:56.440Z,95.25
2022-10-20T05:17:22.768Z,95.25
2022-10-20T05:19:49.178Z,95.06
2022-10-20T05:22:15.546Z,95.22
2022-10-20T05:24:42.025Z,95.12
2022-10-20T05:27:08.393Z,95.17
2022-10-20T05:29:34.680Z,95.25
2022-10-20T05:32:00.993Z,95.03
2022-10-20T05:34:27.356Z,95.04
2022-10-20T05:36:54.286Z,94.97
2022-10-20T05:39:21.428Z,95.04
2022-10-20T05:41:47.877Z,94.97
2022-10-20T05:44:14.482Z,94.75
2022-10-20T05:46:42.378Z,95.02
2022-10-20T05:49:14.208Z,94.98
2022-10-20T05:51:40.800Z,94.96
2022-10-20T05:54:07.107Z,94.86
2022-10-20T05:56:34.187Z,94.84
2022-10-20T05:59:00.482Z,94.61
2022-10-20T06:01:39.500Z,94.73
2022-10-20T06:04:08.539Z,94.93
2022-10-20T06:06:36.043Z,94.88
2022-10-20T06:09:06.637Z,94.90
2022-10-20T06:11:38.414Z,95.01
2022-10-20T06:14:06.393Z,94.90
2022-10-20T06:16:32.790Z,94.89
2022-10-20T06:18:59.848Z,94.96
2022-10-20T06:21:29.726Z,94.94
2022-10-20T06:23:59.845Z,94.88
2022-10-20T06:26:29.801Z,94.78
2022-10-20T06:31:31.181Z,94.63
2022-10-20T06:33:58.614Z,94.57
2022-10-20T06:36:26.473Z,94.75
2022-10-20T06:38:58.257Z,94.69
2022-10-20T06:43:57.885Z,94.66
2022-10-20T06:46:24.743Z,94.42
2022-10-20T06:48:53.041Z,94.53
2022-10-20T06:51:22.912Z,94.54
2022-10-20T06:53:51.555Z,94.55
2022-10-20T06:56:20.293Z,94.42
2022-10-20T06:58:48.963Z,94.52
2022-10-20T07:01:20.791Z,94.40
2022-10-20T07:03:47.935Z,94.29
2022-10-20T07:06:17.772Z,94.24
2022-10-20T07:08:44.455Z,94.26
2022-10-20T07:11:16.761Z,94.10
2022-10-20T07:13:43.615Z,94.13
2022-10-20T07:16:13.677Z,93.94
2022-10-20T07:18:40.572Z,93.94
2022-10-20T07:21:11.093Z,93.98
2022-10-20T07:23:37.800Z,93.79
2022-10-20T07:26:07.081Z,93.89
2022-10-20T07:28:34.484Z,93.69
2022-10-20T07:31:05.738Z,93.75
2022-10-20T07:33:32.485Z,93.55
2022-10-20T07:35:58.847Z,93.43
2022-10-20T07:38:25.294Z,93.54
2022-10-20T07:40:51.785Z,93.53
2022-10-20T07:43:18.643Z,93.48
2022-10-20T07:45:45.565Z,93.13
2022-10-20T07:48:11.928Z,93.11
2022-10-20T07:50:38.452Z,93.08
2022-10-20T07:53:06.271Z,93.02
2022-10-20T07:55:38.574Z,92.59
2022-10-20T07:58:05.681Z,92.67
2022-10-20T08:00:32.157Z,92.50
2022-10-20T08:02:58.575Z,92.48
2022-10-20T08:05:24.949Z,92.32
2022-10-20T08:07:51.319Z,92.06
2022-10-20T08:10:17.958Z,91.77
2022-10-20T08:12:44.302Z,91.53
2022-10-20T08:17:44.087Z,91.25
2022-10-20T08:20:10.952Z,91.44
2022-10-20T08:25:04.508Z,91.24
2022-10-20T08:27:30.839Z,91.18
2022-10-20T08:30:12.325Z,90.95
2022-10-20T08:42:37.069Z,89.88
2022-10-20T08:45:03.900Z,89.83
2022-10-20T08:47:35.125Z,89.78
2022-10-20T08:54:57.415Z,89.09
2022-10-20T08:57:30.401Z,89.20
2022-10-20T09:00:09.087Z,89.12
2022-10-20T09:02:35.739Z,88.60
2022-10-20T09:10:16.112Z,87.76
2022-10-20T09:15:15.741Z,86.76
2022-10-20T09:17:46.146Z,86.88
2022-10-20T09:20:26.001Z,86.26
2022-10-20T09:22:52.525Z,86.06
2022-10-20T09:27:46.871Z,85.79
2022-10-20T09:32:48.659Z,86.01
2022-10-20T09:35:15.078Z,85.70
2022-10-20T09:37:43.930Z,85.72
2022-10-20T09:42:57.575Z,86.22
2022-10-20T09:50:35.595Z,86.23
2022-10-20T09:55:33.881Z,86.45
2022-10-20T09:58:03.529Z,86.66
2022-10-20T10:00:37.164Z,86.58
2022-10-20T10:03:09.764Z,86.56
2022-10-20T10:08:02.878Z,86.32
2022-10-20T10:10:31.466Z,86.55
2022-10-20T10:13:00.876Z,86.45
2022-10-20T10:15:34.442Z,86.63
2022-10-20T10:23:22.747Z,85.95
2022-10-20T10:33:33.019Z,86.87
2022-10-20T10:38:29.417Z,86.39
2022-10-20T10:41:27.631Z,85.88
2022-10-20T10:44:21.534Z,85.38
2022-10-20T10:49:44.299Z,83.79
2022-10-20T10:55:02.145Z,80.06
2022-10-20T11:00:11.583Z,80.56
2022-10-20T11:05:34.681Z,80.92
2022-10-20T11:08:11.589Z,81.42
2022-10-20T11:18:51.885Z,82.24
2022-10-20T11:21:51.186Z,81.58
2022-10-20T11:24:59.581Z,82.21
2022-10-20T11:27:29.725Z,81.80
2022-10-20T11:30:18.235Z,81.60
2022-10-20T11:32:50.748Z,82.18
2022-10-20T11:35:47.455Z,82.22
2022-10-20T11:38:46.327Z,82.07
2022-10-20T11:41:20.015Z,81.76
2022-10-20T11:51:29.463Z,82.13
2022-10-20T11:57:00.406Z,82.73
2022-10-20T11:59:54.690Z,83.05
2022-10-20T12:02:42.852Z,83.08
2022-10-20T12:05:45.234Z,83.08
2022-10-20T12:08:31.378Z,83.61
2022-10-20T12:11:15.979Z,83.65
2022-10-20T12:14:20.888Z,84.33
2022-10-20T12:16:58.212Z,84.70
2022-10-20T12:22:15.950Z,85.28
2022-10-20T12:24:54.391Z,86.12
2022-10-20T12:27:22.325Z,86.52
2022-10-20T12:29:53.856Z,86.45
2022-10-20T12:35:00.761Z,87.17
2022-10-20T12:37:33.351Z,87.49
2022-10-20T12:40:22.921Z,87.72
2022-10-20T12:42:54.298Z,88.12
2022-10-20T12:47:51.167Z,87.97
2022-10-20T12:50:32.421Z,88.36
2022-10-20T12:53:09.681Z,88.79
2022-10-20T12:55:41.071Z,89.04
2022-10-20T13:00:46.710Z,89.89
2022-10-20T13:03:31.531Z,90.61
2022-10-20T13:08:26.409Z,90.60
2022-10-20T13:10:56.725Z,90.98
2022-10-20T13:13:23.033Z,91.05
2022-10-20T13:15:53.304Z,91.06
2022-10-20T13:23:33.654Z,91.75
2022-10-20T13:26:24.115Z,91.99
2022-10-20T13:28:53.301Z,92.03
2022-10-20T13:34:23.706Z,92.27
2022-10-20T13:37:02.812Z,92.19
2022-10-20T13:44:57.004Z,92.75
2022-10-20T13:47:50.729Z,92.69
2022-10-20T13:53:14.695Z,93.21
2022-10-20T13:55:58.094Z,93.27
2022-10-20T14:01:06.083Z,93.07
2022-10-20T14:03:44.972Z,92.95
2022-10-20T14:06:29.994Z,92.31
2022-10-20T14:08:58.209Z,92.04
2022-10-20T14:11:31.965Z,92.24
2022-10-20T14:16:29.252Z,92.23
2022-10-20T14:19:15.051Z,91.98
2022-10-20T14:21:45.256Z,92.14
2022-10-20T14:26:54.610Z,92.03
2022-10-20T14:29:24.071Z,92.03
2022-10-20T14:31:51.216Z,91.51
2022-10-20T14:34:24.234Z,91.51
2022-10-20T14:39:24.094Z,90.95
2022-10-20T14:41:50.531Z,90.54
2022-10-20T14:47:05.195Z,90.00
2022-10-20T14:54:38.968Z,88.62
2022-10-20T14:57:08.344Z,89.06
2022-10-20T14:59:38.653Z,89.20
2022-10-20T15:07:19.564Z,88.65
2022-10-20T15:14:48.012Z,88.11
2022-10-20T15:22:23.009Z,87.53
2022-10-20T15:24:49.861Z,87.77
2022-10-20T15:27:17.874Z,87.71
2022-10-20T15:29:51.602Z,86.74
2022-10-20T15:32:18.290Z,86.44
2022-10-20T15:34:44.867Z,86.79
2022-10-20T15:37:11.197Z,87.01
2022-10-20T15:39:37.578Z,86.59
2022-10-20T15:42:10.803Z,86.90
2022-10-20T15:44:37.890Z,86.91
2022-10-20T15:47:04.228Z,86.24
2022-10-20T15:49:30.635Z,86.41
2022-10-20T15:56:49.990Z,86.17
2022-10-20T15:59:16.493Z,86.16
2022-10-20T16:01:42.843Z,86.09
2022-10-20T16:04:25.923Z,86.03
2022-10-20T16:09:26.846Z,86.44
2022-10-20T16:14:19.476Z,86.25
2022-10-20T16:16:45.824Z,86.22
2022-10-20T16:19:12.561Z,86.14
2022-10-20T16:26:31.793Z,86.67
2022-10-20T16:28:59.661Z,86.93
2022-10-20T16:31:26.113Z,87.04
2022-10-20T16:33:52.468Z,87.09
2022-10-20T16:36:18.965Z,87.15
2022-10-20T16:38:45.281Z,87.58
2022-10-20T16:41:14.133Z,87.84
2022-10-20T16:43:43.300Z,87.90
2022-10-20T16:48:39.039Z,87.65
2022-10-20T16:51:09.697Z,87.93
2022-10-20T16:53:36.894Z,88.19
2022-10-20T16:58:29.964Z,88.61
2022-10-20T17:01:02.098Z,88.65
2022-10-20T17:06:02.051Z,88.82
2022-10-20T17:08:31.578Z,89.01
2022-10-20T17:13:25.992Z,89.04
2022-10-20T17:15:52.421Z,89.28
2022-10-20T17:18:19.801Z,89.47
2022-10-20T17:25:39.050Z,90.22
2022-10-20T17:28:05.390Z,90.21
2022-10-20T17:32:58.023Z,90.62
2022-10-20T17:37:50.687Z,91.19
2022-10-20T17:45:10.629Z,91.17
2022-10-20T17:47:36.944Z,91.44
2022-10-20T17:50:03.843Z,91.57
2022-10-20T17:52:30.213Z,91.94
2022-10-20T17:54:56.553Z,92.48
2022-10-20T17:59:53.319Z,92.48
2022-10-20T18:02:23.456Z,92.55
2022-10-20T18:04:50.790Z,92.82
2022-10-20T18:07:17.155Z,93.02
2022-10-20T18:12:10.259Z,92.97
2022-10-20T18:14:36.616Z,92.43
2022-10-20T18:17:02.993Z,92.65
2022-10-20T18:21:55.716Z,92.48
2022-10-20T18:24:22.104Z,92.47
2022-10-20T18:26:48.744Z,92.43
2022-10-20T18:31:44.659Z,92.55
2022-10-20T18:34:13.366Z,92.67
2022-10-20T18:36:43.459Z,92.60
2022-10-20T18:44:10.112Z,92.48
2022-10-20T18:46:36.705Z,92.51
2022-10-20T18:51:31.830Z,92.46
2022-10-20T18:56:27.799Z,92.42
2022-10-20T18:58:59.361Z,92.62
2022-10-20T19:01:31.135Z,92.60
2022-10-20T19:03:59.423Z,92.78
2022-10-20T19:06:28.858Z,92.86
2022-10-20T19:08:58.363Z,93.16
2022-10-20T19:13:53.767Z,92.59
2022-10-20T19:16:25.751Z,92.79
2022-10-20T19:26:23.322Z,93.24
2022-10-20T19:28:58.654Z,93.42
2022-10-20T19:31:31.025Z,93.48
2022-10-20T19:34:08.415Z,93.46
2022-10-20T19:36:34.783Z,93.49
2022-10-20T19:39:01.202Z,93.66
2022-10-20T19:41:27.642Z,93.72
2022-10-20T19:43:54.107Z,93.72
2022-10-20T19:48:48.698Z,94.20
2022-10-20T19:51:17.540Z,94.21
2022-10-20T19:53:44.479Z,94.40
2022-10-20T19:56:11.293Z,94.55
2022-10-20T20:01:09.711Z,94.48
2022-10-20T20:03:36.380Z,94.58
2022-10-20T20:06:09.557Z,94.74
2022-10-20T20:08:36.849Z,95.09
2022-10-20T20:13:31.407Z,95.28
2022-10-20T20:15:57.775Z,95.36
2022-10-20T20:20:50.494Z,95.56
2022-10-20T20:23:20.065Z,95.56
2022-10-20T20:25:52.209Z,95.60
2022-10-20T20:28:18.560Z,95.95
2022-10-20T20:30:44.906Z,95.72
2022-10-20T20:35:37.555Z,95.81
2022-10-20T20:38:03.914Z,95.88
2022-10-20T20:40:30.303Z,95.90
2022-10-20T20:42:56.738Z,95.89
2022-10-20T20:45:23.186Z,95.81
2022-10-20T20:47:49.560Z,95.75
2022-10-20T20:52:42.568Z,95.87
2022-10-20T20:55:09.111Z,95.69
2022-10-20T21:00:02.287Z,95.63
2022-10-20T21:02:28.623Z,95.44
2022-10-20T21:07:21.240Z,95.13
2022-10-20T21:09:48.365Z,95.81
2022-10-20T21:12:14.729Z,95.91
2022-10-20T21:14:41.084Z,95.87
2022-10-20T21:22:01.206Z,95.29
2022-10-20T21:24:27.859Z,94.91
2022-10-20T21:26:54.494Z,94.92
2022-10-20T21:29:21.110Z,94.90
2022-10-20T21:36:40.291Z,94.74
2022-10-20T21:41:35.983Z,94.43
2022-10-20T21:44:04.004Z,94.30
2022-10-20T21:46:39.066Z,94.68
2022-10-20T21:54:13.447Z,94.84
2022-10-20T21:56:43.132Z,94.63
2022-10-20T21:59:17.049Z,94.69
2022-10-20T22:04:09.697Z,95.12
2022-10-20T22:06:36.765Z,95.28
2022-10-20T22:13:58.336Z,95.34
2022-10-20T22:18:58.294Z,95.53
2022-10-20T22:21:25.332Z,95.51
2022-10-20T22:23:56.117Z,95.60
2022-10-20T22:28:52.099Z,95.46
2022-10-20T22:31:18.530Z,95.52
2022-10-20T22:33:44.948Z,95.46
2022-10-20T22:48:24.331Z,95.42
2022-10-20T22:50:50.832Z,95.35
2022-10-20T22:58:10.071Z,95.81
2022-10-20T23:00:38.962Z,95.36
2022-10-20T23:05:31.654Z,94.02
2022-10-20T23:07:58.614Z,92.65
2022-10-20T23:10:25.034Z,91.66
2022-10-20T23:12:51.454Z,91.25
2022-10-20T23:15:17.939Z,90.50
2022-10-20T23:20:25.377Z,90.01
2022-10-20T23:25:18.031Z,89.63
2022-10-20T23:27:44.371Z,89.41
2022-10-20T23:30:10.901Z,89.57
2022-10-20T23:35:03.782Z,89.79
2022-10-20T23:42:22.687Z,90.60
2022-10-20T23:52:07.883Z,90.36
2022-10-20T23:54:34.240Z,90.88
